createdAt,value
2024-02-21T00:00:34.625Z,2.63
2024-02-21T00:03:03.217Z,2.42
2024-02-21T00:05:29.847Z,2.63
2024-02-21T00:07:56.502Z,2.65
2024-02-21T00:10:23.086Z,2.50
2024-02-21T00:12:49.623Z,2.58
2024-02-21T00:15:16.233Z,2.80
2024-02-21T00:17:43.499Z,2.22
2024-02-21T00:20:10.804Z,1.90
2024-02-21T00:22:37.782Z,2.40
2024-02-21T00:25:04.666Z,2.47
2024-02-21T00:27:31.359Z,2.40
2024-02-21T00:29:57.869Z,1.92
2024-02-21T00:32:24.376Z,2.65
2024-02-21T00:34:50.867Z,1.97
2024-02-21T00:37:17.447Z,2.30
2024-02-21T00:39:44.080Z,2.10
2024-02-21T00:42:10.558Z,2.08
2024-02-21T00:44:37.248Z,2.38
2024-02-21T00:47:04.016Z,2.20
2024-02-21T00:49:30.598Z,2.40
2024-02-21T00:51:57.151Z,2.00
2024-02-21T00:54:24.173Z,2.10
2024-02-21T00:56:50.866Z,2.10
2024-02-21T00:59:17.888Z,2.17
2024-02-21T01:01:44.635Z,2.00
2024-02-21T01:04:11.548Z,2.17
2024-02-21T01:06:38.161Z,2.10
2024-02-21T01:09:05.077Z,1.70
2024-02-21T01:11:31.761Z,1.97
2024-02-21T01:13:58.862Z,1.90
2024-02-21T01:16:25.652Z,2.38
2024-02-21T01:18:52.226Z,2.58
2024-02-21T01:21:18.844Z,2.10
2024-02-21T01:23:45.381Z,2.50
2024-02-21T01:26:14.286Z,2.50
2024-02-21T01:28:41.552Z,2.85
2024-02-21T01:31:08.458Z,2.63
2024-02-21T01:33:40.112Z,2.78
2024-02-21T01:36:10.002Z,2.70
2024-02-21T01:38:36.779Z,2.78
2024-02-21T01:41:03.625Z,2.83
2024-02-21T01:43:30.155Z,2.92
2024-02-21T01:45:58.256Z,3.15
2024-02-21T01:48:26.171Z,2.90
2024-02-21T01:50:54.927Z,2.80
2024-02-21T01:53:24.188Z,2.70
2024-02-21T01:55:50.788Z,2.80
2024-02-21T01:58:18.305Z,3.00
2024-02-21T02:00:46.698Z,3.00
2024-02-21T02:03:17.973Z,2.90
2024-02-21T02:05:48.655Z,3.13
2024-02-21T02:08:16.413Z,3.22
2024-02-21T02:10:43.824Z,3.50
2024-02-21T02:13:11.228Z,2.90
2024-02-21T02:15:41.385Z,3.00
2024-02-21T02:18:08.026Z,3.28
2024-02-21T02:20:34.813Z,3.30
2024-02-21T02:23:10.918Z,3.45
2024-02-21T02:25:38.319Z,3.60
2024-02-21T02:28:06.379Z,3.10
2024-02-21T02:30:39.127Z,3.00
2024-02-21T02:33:06.264Z,3.22
2024-02-21T02:35:33.622Z,3.30
2024-02-21T02:38:00.252Z,3.57
2024-02-21T02:40:26.894Z,3.63
2024-02-21T02:42:56.368Z,3.28
2024-02-21T02:45:24.893Z,3.65
2024-02-21T02:47:51.469Z,3.30
2024-02-21T02:50:18.220Z,3.00
2024-02-21T02:52:44.873Z,3.72
2024-02-21T02:55:11.328Z,3.45
2024-02-21T02:57:38.033Z,3.20
2024-02-21T03:00:05.702Z,3.40
2024-02-21T03:02:32.831Z,3.30
2024-02-21T03:04:59.729Z,3.15
2024-02-21T03:07:26.997Z,3.78
2024-02-21T03:09:54.466Z,2.97
2024-02-21T03:12:25.649Z,2.70
2024-02-21T03:14:52.253Z,2.60
2024-02-21T03:17:18.668Z,3.30
2024-02-21T03:19:45.149Z,3.83
2024-02-21T03:22:11.663Z,2.90
2024-02-21T03:24:38.286Z,3.35
2024-02-21T03:27:05.087Z,3.50
2024-02-21T03:29:31.467Z,2.85
2024-02-21T03:31:57.990Z,3.60
2024-02-21T03:34:24.509Z,3.28
2024-02-21T03:36:51.078Z,3.45
2024-02-21T03:39:17.572Z,3.53
2024-02-21T03:41:44.735Z,3.38
2024-02-21T03:44:11.375Z,3.47
2024-02-21T03:46:37.908Z,3.92
2024-02-21T03:49:04.440Z,3.28
2024-02-21T03:51:31.131Z,3.47
2024-02-21T03:53:57.744Z,3.67
2024-02-21T03:56:24.403Z,4.15
2024-02-21T03:58:51.656Z,3.08
2024-02-21T04:01:18.543Z,3.42
2024-02-21T04:03:45.897Z,3.97
2024-02-21T04:06:12.465Z,3.15
2024-02-21T04:08:40.520Z,3.65
2024-02-21T04:11:07.013Z,3.45
2024-02-21T04:13:33.524Z,2.95
2024-02-21T04:16:00.030Z,3.07
2024-02-21T04:18:29.248Z,3.08
2024-02-21T04:20:55.791Z,3.33
2024-02-21T04:23:22.213Z,3.65
2024-02-21T04:25:48.821Z,3.72
2024-02-21T04:28:15.442Z,3.40
2024-02-21T04:30:41.896Z,3.72
2024-02-21T04:33:08.485Z,2.97
2024-02-21T04:35:37.486Z,3.55
2024-02-21T04:38:05.224Z,3.35
2024-02-21T04:40:31.924Z,4.10
2024-02-21T04:42:58.815Z,3.30
2024-02-21T04:45:25.448Z,3.45
2024-02-21T04:47:51.867Z,4.28
2024-02-21T04:50:18.499Z,3.10
2024-02-21T04:52:45.138Z,3.23
2024-02-21T04:55:11.735Z,3.75
2024-02-21T04:57:38.286Z,4.18
2024-02-21T05:00:05.339Z,4.18
2024-02-21T05:02:31.902Z,3.35
2024-02-21T05:04:58.525Z,3.77
2024-02-21T05:07:25.080Z,3.15
2024-02-21T05:09:51.681Z,4.13
2024-02-21T05:12:18.221Z,3.70
2024-02-21T05:14:44.770Z,3.35
2024-02-21T05:17:11.311Z,3.40
2024-02-21T05:19:37.992Z,3.45
2024-02-21T05:22:04.852Z,4.50
2024-02-21T05:24:31.389Z,3.65
2024-02-21T05:26:57.905Z,4.45
2024-02-21T05:29:24.348Z,4.40
2024-02-21T05:31:54.001Z,4.22
2024-02-21T05:34:22.015Z,3.78
2024-02-21T05:36:50.913Z,3.60
2024-02-21T05:39:18.578Z,4.15
2024-02-21T05:41:45.484Z,3.70
2024-02-21T05:44:12.444Z,3.80
2024-02-21T05:46:38.910Z,4.00
2024-02-21T05:49:05.485Z,3.53
2024-02-21T05:51:35.968Z,3.88
2024-02-21T05:54:02.784Z,4.20
2024-02-21T05:56:29.611Z,4.10
2024-02-21T05:58:56.154Z,4.03
2024-02-21T06:01:23.071Z,4.97
2024-02-21T06:03:49.652Z,4.15
2024-02-21T06:06:16.248Z,4.43
2024-02-21T06:08:42.830Z,4.47
2024-02-21T06:11:09.495Z,5.00
2024-02-21T06:13:40.415Z,4.40
2024-02-21T06:16:08.030Z,4.50
2024-02-21T06:18:37.104Z,5.00
2024-02-21T06:21:03.715Z,5.25
2024-02-21T06:23:30.185Z,5.80
2024-02-21T06:25:56.777Z,4.82
2024-02-21T06:28:23.345Z,4.80
2024-02-21T06:30:49.915Z,5.10
2024-02-21T06:33:16.549Z,5.00
2024-02-21T06:35:44.028Z,5.78
2024-02-21T06:38:10.761Z,6.35
2024-02-21T06:40:40.877Z,6.55
2024-02-21T06:43:07.472Z,7.67
2024-02-21T06:45:33.927Z,6.65
2024-02-21T06:48:00.636Z,6.90
2024-02-21T06:50:27.283Z,7.53
2024-02-21T06:52:53.831Z,7.03
2024-02-21T06:55:20.437Z,7.60
2024-02-21T06:57:46.985Z,7.43
2024-02-21T07:00:14.318Z,8.02
2024-02-21T07:02:40.742Z,8.07
2024-02-21T07:05:07.723Z,8.20
2024-02-21T07:07:36.318Z,7.20
2024-02-21T07:10:02.953Z,7.70
2024-02-21T07:12:29.360Z,8.60
2024-02-21T07:14:55.802Z,8.85
2024-02-21T07:17:22.391Z,8.68
2024-02-21T07:19:48.977Z,8.73
2024-02-21T07:22:15.524Z,9.02
2024-02-21T07:24:42.085Z,8.43
2024-02-21T07:27:08.568Z,8.77
2024-02-21T07:29:34.999Z,7.65
2024-02-21T07:32:02.611Z,6.97
2024-02-21T07:34:29.343Z,7.75
2024-02-21T07:36:56.952Z,7.85
2024-02-21T07:39:23.480Z,6.85
2024-02-21T07:41:50.460Z,7.57
2024-02-21T07:44:17.299Z,6.77
2024-02-21T07:46:43.781Z,6.38
2024-02-21T07:49:10.391Z,6.55
2024-02-21T07:51:37.532Z,5.65
2024-02-21T07:54:05.389Z,6.10
2024-02-21T07:56:32.272Z,5.90
2024-02-21T07:58:59.130Z,5.90
2024-02-21T08:01:26.040Z,6.25
2024-02-21T08:03:52.950Z,6.50
2024-02-21T08:06:19.705Z,6.32
2024-02-21T08:08:46.232Z,5.30
2024-02-21T08:11:12.861Z,6.45
2024-02-21T08:13:39.469Z,6.43
2024-02-21T08:16:06.187Z,6.72
2024-02-21T08:18:32.909Z,6.53
2024-02-21T08:20:59.530Z,5.93
2024-02-21T08:23:26.199Z,6.18
2024-02-21T08:25:52.983Z,5.97
2024-02-21T08:28:19.550Z,5.90
2024-02-21T08:30:49.011Z,6.18
2024-02-21T08:33:17.812Z,6.67
2024-02-21T08:35:44.459Z,5.95
2024-02-21T08:38:11.128Z,7.38
2024-02-21T08:40:38.088Z,6.85
2024-02-21T08:43:04.867Z,6.45
2024-02-21T08:45:31.524Z,7.30
2024-02-21T08:47:58.400Z,6.65
2024-02-21T08:50:28.669Z,7.05
2024-02-21T08:52:56.528Z,6.72
2024-02-21T08:55:23.461Z,7.15
2024-02-21T08:57:50.148Z,6.43
2024-02-21T09:00:17.473Z,6.28
2024-02-21T09:02:44.576Z,6.90
2024-02-21T09:05:12.014Z,6.18
2024-02-21T09:07:38.698Z,7.18
2024-02-21T09:10:05.542Z,6.37
2024-02-21T09:12:32.003Z,6.18
2024-02-21T09:14:58.542Z,5.90
2024-02-21T09:17:26.386Z,6.28
2024-02-21T09:19:53.695Z,5.72
2024-02-21T09:22:20.348Z,5.60
2024-02-21T09:24:46.811Z,5.75
2024-02-21T09:27:13.363Z,5.50
2024-02-21T09:29:40.681Z,5.20
2024-02-21T09:32:07.666Z,5.60
2024-02-21T09:34:34.547Z,5.50
2024-02-21T09:37:01.121Z,5.10
2024-02-21T09:39:27.681Z,5.00
2024-02-21T09:42:00.496Z,5.03
2024-02-21T09:44:33.937Z,4.97
2024-02-21T09:47:07.379Z,4.90
2024-02-21T09:49:36.246Z,4.82
2024-02-21T09:52:04.190Z,4.38
2024-02-21T09:54:34.111Z,4.97
2024-02-21T09:57:04.702Z,5.30
2024-02-21T09:59:32.854Z,4.50
2024-02-21T10:02:01.834Z,4.28
2024-02-21T10:04:29.050Z,5.10
2024-02-21T10:06:56.202Z,4.57
2024-02-21T10:09:30.535Z,4.70
2024-02-21T10:12:08.565Z,4.17
2024-02-21T10:14:35.248Z,4.20
2024-02-21T10:17:02.287Z,4.32
2024-02-21T10:19:29.022Z,4.75
2024-02-21T10:22:11.523Z,4.20
2024-02-21T10:24:44.790Z,4.37
2024-02-21T10:27:14.329Z,4.05
2024-02-21T10:29:42.812Z,3.58
2024-02-21T10:32:13.779Z,3.33
2024-02-21T10:34:42.655Z,3.58
2024-02-21T10:37:10.695Z,3.67
2024-02-21T10:39:42.329Z,3.35
2024-02-21T10:42:12.977Z,3.13
2024-02-21T10:44:41.362Z,3.15
2024-02-21T10:47:14.458Z,3.50
2024-02-21T10:49:46.044Z,3.00
2024-02-21T10:52:26.561Z,2.53
2024-02-21T10:55:17.580Z,3.13
2024-02-21T10:57:45.053Z,2.63
2024-02-21T11:00:13.720Z,2.80
2024-02-21T11:02:41.679Z,2.80
2024-02-21T11:05:09.151Z,3.17
2024-02-21T11:07:38.413Z,2.90
2024-02-21T11:10:06.200Z,2.88
2024-02-21T11:12:34.715Z,3.13
2024-02-21T11:15:08.298Z,3.13
2024-02-21T11:17:37.490Z,3.80
2024-02-21T11:20:15.356Z,4.32
2024-02-21T11:22:44.971Z,3.22
2024-02-21T11:25:14.665Z,3.80
2024-02-21T11:27:47.436Z,3.73
2024-02-21T11:30:15.505Z,4.07
2024-02-21T11:32:42.198Z,4.00
2024-02-21T11:35:09.908Z,3.75
2024-02-21T11:37:41.369Z,3.78
2024-02-21T11:40:11.460Z,3.60
2024-02-21T11:42:38.790Z,3.80
2024-02-21T11:45:05.818Z,4.05
2024-02-21T11:47:32.586Z,4.30
2024-02-21T11:49:59.287Z,3.97
2024-02-21T11:52:27.744Z,3.93
2024-02-21T11:54:55.937Z,4.43
2024-02-21T11:57:22.637Z,3.63
2024-02-21T11:59:50.387Z,3.72
2024-02-21T12:02:18.373Z,4.10
2024-02-21T12:04:45.880Z,3.93
2024-02-21T12:07:12.772Z,3.85
2024-02-21T12:09:39.353Z,4.00
2024-02-21T12:12:07.208Z,4.20
2024-02-21T12:14:35.763Z,4.32
2024-02-21T12:17:05.375Z,4.13
2024-02-21T12:19:33.448Z,4.20
2024-02-21T12:22:01.036Z,4.57
2024-02-21T12:24:28.799Z,4.07
2024-02-21T12:26:57.833Z,4.10
2024-02-21T12:29:25.923Z,3.20
2024-02-21T12:31:53.244Z,4.00
2024-02-21T12:34:27.675Z,3.65
2024-02-21T12:37:02.497Z,3.83
2024-02-21T12:39:29.889Z,3.70
2024-02-21T12:41:57.856Z,3.80
2024-02-21T12:44:25.272Z,3.65
2024-02-21T12:46:55.433Z,3.55
2024-02-21T12:49:22.691Z,3.58
2024-02-21T12:51:49.650Z,3.55
2024-02-21T12:54:16.091Z,3.53
2024-02-21T12:56:42.565Z,3.50
2024-02-21T12:59:12.239Z,3.80
2024-02-21T13:01:39.473Z,2.97
2024-02-21T13:04:06.285Z,3.63
2024-02-21T13:06:32.803Z,2.83
2024-02-21T13:09:00.564Z,3.67
2024-02-21T13:11:29.778Z,3.85
2024-02-21T13:13:56.284Z,3.25
2024-02-21T13:16:23.804Z,3.50
2024-02-21T13:18:50.651Z,2.60
2024-02-21T13:21:17.756Z,2.80
2024-02-21T13:23:45.520Z,2.55
2024-02-21T13:26:12.393Z,2.78
2024-02-21T13:28:39.211Z,3.08
2024-02-21T13:31:05.631Z,2.60
2024-02-21T13:33:32.219Z,2.55
2024-02-21T13:35:59.551Z,2.92
2024-02-21T13:38:25.938Z,2.63
2024-02-21T13:40:52.390Z,2.70
2024-02-21T13:43:18.907Z,2.90
2024-02-21T13:45:57.579Z,2.58
2024-02-21T13:48:24.219Z,2.65
2024-02-21T13:50:50.721Z,2.30
2024-02-21T13:53:19.541Z,2.50
2024-02-21T13:55:46.479Z,2.33
2024-02-21T13:58:13.129Z,2.83
2024-02-21T14:00:39.742Z,2.05
2024-02-21T14:03:06.317Z,2.20
2024-02-21T14:05:32.884Z,2.40
2024-02-21T14:07:59.297Z,2.67
2024-02-21T14:10:25.917Z,3.03
2024-02-21T14:12:52.484Z,2.30
2024-02-21T14:15:18.966Z,2.60
2024-02-21T14:17:45.667Z,2.10
2024-02-21T14:20:17.526Z,2.27
2024-02-21T14:22:45.605Z,2.25
2024-02-21T14:25:12.016Z,2.72
2024-02-21T14:27:38.461Z,2.40
2024-02-21T14:30:05.975Z,2.33
2024-02-21T14:32:33.425Z,2.10
2024-02-21T14:35:02.568Z,2.22
2024-02-21T14:37:31.619Z,2.90
2024-02-21T14:39:58.135Z,2.20
2024-02-21T14:42:24.575Z,2.42
2024-02-21T14:44:51.055Z,2.17
2024-02-21T14:47:17.538Z,1.85
2024-02-21T14:49:44.714Z,2.42
2024-02-21T14:52:11.954Z,1.92
2024-02-21T14:54:39.184Z,2.05
2024-02-21T14:57:05.913Z,2.07
2024-02-21T14:59:34.675Z,2.58
2024-02-21T15:02:02.093Z,1.85
2024-02-21T15:04:29.042Z,1.98
2024-02-21T15:06:55.757Z,2.10
2024-02-21T15:09:22.148Z,2.67
2024-02-21T15:11:48.844Z,2.28
2024-02-21T15:14:15.414Z,2.20
2024-02-21T15:16:41.977Z,1.77
2024-02-21T15:19:08.406Z,1.98
2024-02-21T15:21:34.936Z,2.20
2024-02-21T15:24:03.166Z,2.22
2024-02-21T15:26:30.941Z,2.10
2024-02-21T15:28:57.597Z,2.30
2024-02-21T15:31:24.418Z,2.63
2024-02-21T15:33:53.400Z,2.20
2024-02-21T15:36:20.487Z,1.98
2024-02-21T15:38:47.469Z,2.40
2024-02-21T15:41:16.741Z,2.95
2024-02-21T15:43:46.381Z,2.70
2024-02-21T15:46:13.914Z,2.90
2024-02-21T15:48:40.744Z,2.60
2024-02-21T15:51:08.045Z,2.72
2024-02-21T15:53:34.542Z,2.70
2024-02-21T15:56:01.190Z,2.30
2024-02-21T15:58:28.867Z,3.13
2024-02-21T16:00:55.598Z,3.15
2024-02-21T16:03:23.041Z,2.92
2024-02-21T16:05:50.204Z,2.95
2024-02-21T16:08:20.008Z,3.08
2024-02-21T16:10:46.782Z,3.10
2024-02-21T16:13:13.544Z,2.95
2024-02-21T16:15:41.167Z,3.08
2024-02-21T16:18:07.900Z,3.60
2024-02-21T16:20:34.494Z,3.17
2024-02-21T16:23:04.617Z,2.83
2024-02-21T16:25:31.545Z,2.78
2024-02-21T16:27:58.889Z,3.20
2024-02-21T16:30:25.530Z,3.15
2024-02-21T16:32:53.544Z,3.45
2024-02-21T16:35:20.521Z,3.23
2024-02-21T16:37:48.756Z,2.95
2024-02-21T16:40:15.378Z,3.10
2024-02-21T16:42:42.024Z,3.17
2024-02-21T16:45:09.790Z,2.95
2024-02-21T16:47:37.553Z,2.50
2024-02-21T16:50:06.434Z,3.13
2024-02-21T16:52:33.264Z,3.13
2024-02-21T16:54:59.853Z,3.25
2024-02-21T16:57:26.387Z,3.00
2024-02-21T16:59:54.006Z,2.53
2024-02-21T17:02:20.879Z,3.50
2024-02-21T17:04:48.731Z,3.13
2024-02-21T17:07:15.279Z,3.72
2024-02-21T17:09:41.755Z,3.13
2024-02-21T17:12:08.532Z,3.20
2024-02-21T17:14:36.202Z,3.30
2024-02-21T17:17:02.913Z,2.85
2024-02-21T17:19:29.865Z,3.30
2024-02-21T17:21:56.691Z,2.90
2024-02-21T17:24:24.124Z,3.40
2024-02-21T17:26:50.744Z,3.28
2024-02-21T17:29:17.436Z,3.00
2024-02-21T17:31:44.601Z,3.75
2024-02-21T17:34:11.359Z,3.45
2024-02-21T17:36:37.913Z,3.60
2024-02-21T17:39:04.514Z,3.17
2024-02-21T17:41:31.128Z,3.17
2024-02-21T17:43:57.922Z,3.33
2024-02-21T17:46:25.838Z,3.15
2024-02-21T17:48:52.586Z,2.90
2024-02-21T17:51:19.244Z,3.60
2024-02-21T17:53:45.834Z,3.85
2024-02-21T17:56:12.431Z,2.70
2024-02-21T17:58:39.151Z,3.72
2024-02-21T18:01:06.038Z,3.63
2024-02-21T18:03:32.510Z,3.53
2024-02-21T18:06:04.051Z,3.53
2024-02-21T18:08:31.305Z,3.63
2024-02-21T18:10:58.057Z,3.85
2024-02-21T18:13:24.969Z,4.00
2024-02-21T18:15:51.706Z,3.60
2024-02-21T18:18:18.422Z,4.00
2024-02-21T18:20:44.972Z,3.20
2024-02-21T18:23:11.633Z,3.80
2024-02-21T18:25:38.285Z,4.03
2024-02-21T18:28:05.304Z,4.05
2024-02-21T18:30:32.780Z,3.80
2024-02-21T18:33:01.235Z,3.63
2024-02-21T18:35:27.881Z,4.10
2024-02-21T18:37:54.762Z,3.33
2024-02-21T18:40:21.528Z,3.97
2024-02-21T18:42:48.208Z,3.22
2024-02-21T18:45:16.931Z,3.15
2024-02-21T18:47:44.612Z,3.58
2024-02-21T18:50:11.689Z,3.20
2024-02-21T18:52:38.464Z,3.65
2024-02-21T18:55:05.655Z,4.00
2024-02-21T18:57:33.032Z,3.47
2024-02-21T18:59:59.533Z,3.83
2024-02-21T19:02:26.028Z,3.50
2024-02-21T19:04:52.734Z,3.30
2024-02-21T19:07:19.212Z,4.07
2024-02-21T19:09:45.959Z,3.25
2024-02-21T19:12:13.794Z,4.00
2024-02-21T19:14:41.975Z,4.80
2024-02-21T19:17:09.475Z,3.60
2024-02-21T19:19:37.827Z,3.90
2024-02-21T19:22:06.456Z,4.35
2024-02-21T19:24:33.128Z,4.68
2024-02-21T19:26:59.834Z,4.97
2024-02-21T19:29:26.356Z,4.68
2024-02-21T19:31:53.111Z,5.03
2024-02-21T19:34:20.275Z,3.97
2024-02-21T19:36:46.990Z,4.00
2024-02-21T19:39:13.577Z,3.50
2024-02-21T19:41:40.124Z,3.90
2024-02-21T19:44:07.303Z,3.95
2024-02-21T19:46:34.838Z,3.88
2024-02-21T19:49:02.720Z,3.55
2024-02-21T19:51:29.507Z,3.87
2024-02-21T19:54:09.627Z,4.20
2024-02-21T19:56:42.712Z,4.22
2024-02-21T19:59:09.429Z,3.60
2024-02-21T20:01:36.035Z,4.18
2024-02-21T20:04:04.941Z,4.33
2024-02-21T20:06:31.494Z,3.92
2024-02-21T20:08:59.624Z,3.85
2024-02-21T20:11:30.646Z,4.07
2024-02-21T20:13:57.901Z,3.88
2024-02-21T20:16:24.585Z,3.50
2024-02-21T20:18:51.288Z,3.50
2024-02-21T20:21:18.127Z,3.15
2024-02-21T20:23:44.976Z,3.05
2024-02-21T20:26:11.503Z,4.13
2024-02-21T20:28:38.040Z,3.20
2024-02-21T20:31:04.686Z,3.20
2024-02-21T20:33:31.200Z,3.03
2024-02-21T20:35:58.543Z,3.67
2024-02-21T20:38:25.109Z,4.00
2024-02-21T20:40:51.591Z,3.47
2024-02-21T20:43:18.185Z,3.30
2024-02-21T20:45:44.719Z,3.35
2024-02-21T20:48:11.256Z,3.47
2024-02-21T20:50:37.846Z,3.95
2024-02-21T20:53:04.535Z,3.67
2024-02-21T20:55:32.160Z,3.08
2024-02-21T20:57:58.850Z,3.58
2024-02-21T21:00:25.368Z,3.45
2024-02-21T21:02:52.283Z,3.60
2024-02-21T21:05:19.058Z,3.60
2024-02-21T21:07:46.152Z,3.75
2024-02-21T21:10:17.038Z,3.17
2024-02-21T21:12:44.868Z,3.28
2024-02-21T21:15:11.549Z,3.13
2024-02-21T21:17:38.372Z,3.43
2024-02-21T21:20:11.337Z,3.40
2024-02-21T21:22:40.748Z,2.55
2024-02-21T21:25:08.212Z,2.88
2024-02-21T21:27:34.727Z,2.83
2024-02-21T21:30:01.276Z,2.67
2024-02-21T21:32:28.502Z,2.95
2024-02-21T21:34:55.053Z,2.75
2024-02-21T21:37:22.403Z,2.75
2024-02-21T21:39:55.392Z,2.45
2024-02-21T21:42:22.966Z,2.60
2024-02-21T21:44:49.472Z,2.80
2024-02-21T21:47:16.757Z,3.00
2024-02-21T21:49:43.249Z,2.72
2024-02-21T21:52:09.971Z,2.92
2024-02-21T21:54:36.780Z,2.70
2024-02-21T21:57:03.317Z,2.40
2024-02-21T21:59:29.734Z,2.55
2024-02-21T22:01:56.307Z,2.70
2024-02-21T22:04:22.929Z,2.38
2024-02-21T22:06:49.509Z,2.47
2024-02-21T22:09:16.046Z,2.53
2024-02-21T22:11:42.520Z,2.75
2024-02-21T22:14:09.866Z,2.13
2024-02-21T22:16:36.841Z,3.20
2024-02-21T22:19:03.647Z,2.70
2024-02-21T22:21:31.149Z,2.60
2024-02-21T22:23:57.710Z,2.90
2024-02-21T22:26:25.001Z,2.80
2024-02-21T22:28:51.690Z,2.80
2024-02-21T22:31:18.384Z,3.00
2024-02-21T22:33:44.874Z,2.95
2024-02-21T22:36:15.940Z,3.08
2024-02-21T22:38:44.950Z,2.85
2024-02-21T22:41:11.513Z,3.03
2024-02-21T22:43:38.204Z,3.83
2024-02-21T22:46:05.552Z,3.22
2024-02-21T22:48:32.212Z,3.30
2024-02-21T22:50:59.333Z,3.60
2024-02-21T22:53:25.797Z,4.22
2024-02-21T22:55:52.375Z,3.93
2024-02-21T22:58:18.905Z,4.00
2024-02-21T23:00:45.512Z,5.15
2024-02-21T23:03:12.377Z,4.88
2024-02-21T23:05:38.953Z,4.72
2024-02-21T23:08:05.909Z,4.60
2024-02-21T23:10:33.943Z,5.20
2024-02-21T23:13:00.686Z,5.22
2024-02-21T23:15:27.231Z,5.57
2024-02-21T23:17:54.027Z,5.40
2024-02-21T23:20:20.749Z,5.83
2024-02-21T23:22:47.462Z,5.97
2024-02-21T23:25:14.230Z,5.50
2024-02-21T23:27:41.048Z,5.32
2024-02-21T23:30:12.568Z,5.22
2024-02-21T23:32:39.385Z,5.40
2024-02-21T23:35:07.603Z,5.22
2024-02-21T23:37:34.395Z,5.40
2024-02-21T23:40:01.063Z,5.32
2024-02-21T23:42:27.617Z,5.53
2024-02-21T23:44:56.424Z,4.87
2024-02-21T23:47:23.421Z,4.40
2024-02-21T23:49:50.673Z,5.03
2024-02-21T23:52:17.601Z,4.53
2024-02-21T23:54:44.074Z,4.68
2024-02-21T23:57:10.646Z,4.53
2024-02-21T23:59:39.581Z,4.50
